^^
Saratoga-Weather Station Historical Data
Daily Summary for February 1, 2020 Units:  English    Metric   Both
Daily Weekly Monthly Yearly Custom
  High: Low: Average:
Temperature: 60.3 °F 47.8 °F 53.8 °F
Dew Point: 56.3 °F 46.4 °F 52 °F
Humidity: 97% 82% 94%
Wind Speed: 6mph 0mph 0.7mph
Wind Gust: 10mph - -
Wind- - SE
Pressure: 29.8 in 29.5 in -
Precipitation: 0.22 in    
Historical Graphs
 
 
Tabular Data for February 1, 2020
Time Temperature Dew Point Pressure Wind Wind Speed Wind Gust Humidity Rainfall Rate (Hourly) solar
00:03 53.4 °F 52.3 °F 29.8 in Calm     96% 0 in 0 W/m2
00:08 53.8 °F 52.7 °F 29.8 in Calm     96% 0 in 0 W/m2
00:13 54 °F 52.9 °F 29.8 in Calm     96% 0 in 0 W/m2
00:18 54 °F 52.9 °F 29.8 in Calm     96% 0 in 0 W/m2
00:23 54 °F 52.9 °F 29.8 in Calm     96% 0 in 0 W/m2
00:28 54 °F 52.9 °F 29.8 in Calm     96% 0 in 0 W/m2
00:33 54.1 °F 53.1 °F 29.8 in Calm     96% 0 in 0 W/m2
00:38 54 °F 52.9 °F 29.8 in Calm     96% 0 in 0 W/m2
00:43 54 °F 52.9 °F 29.8 in Calm     96% 0 in 0 W/m2
00:48 53.8 °F 52.7 °F 29.8 in Calm     96% 0 in 0 W/m2
00:53 53.6 °F 52.5 °F 29.8 in Calm     96% 0 in 0 W/m2
00:58 53.4 °F 52.3 °F 29.8 in Calm     96% 0 in 0 W/m2
01:03 53.2 °F 52.2 °F 29.8 in Calm     96% 0 in 0 W/m2
01:08 53.2 °F 52.2 °F 29.8 in Calm     96% 0 in 0 W/m2
01:13 53.1 °F 52 °F 29.8 in Calm     96% 0 in 0 W/m2
01:18 53.1 °F 52 °F 29.8 in Calm     96% 0 in 0 W/m2
01:23 52.9 °F 51.8 °F 29.8 in Calm     96% 0 in 0 W/m2
01:28 52.9 °F 51.8 °F 29.8 in Calm     96% 0 in 0 W/m2
01:33 52.7 °F 51.6 °F 29.8 in Calm     96% 0 in 0 W/m2
01:38 52.5 °F 51.4 °F 29.8 in Calm     96% 0 in 0 W/m2
01:43 52.5 °F 51.4 °F 29.8 in Calm     96% 0 in 0 W/m2
01:48 52.5 °F 51.4 °F 29.8 in Calm     96% 0 in 0 W/m2
01:53 52.5 °F 51.4 °F 29.8 in Calm     96% 0 in 0 W/m2
01:58 52.5 °F 51.4 °F 29.8 in Calm     96% 0 in 0 W/m2
02:03 52.5 °F 51.4 °F 29.8 in Calm     96% 0 in 0 W/m2
02:08 52.5 °F 51.4 °F 29.8 in Calm     96% 0 in 0 W/m2
02:13 52.7 °F 51.8 °F 29.8 in Calm     97% 0 in 0 W/m2
02:18 52.7 °F 51.8 °F 29.8 in Calm     97% 0 in 0 W/m2
02:23 52.7 °F 51.8 °F 29.8 in Calm     97% 0 in 0 W/m2
02:28 52.5 °F 51.4 °F 29.8 in Calm     96% 0 in 0 W/m2
02:33 52.3 °F 51.3 °F 29.8 in Calm     96% 0 in 0 W/m2
02:38 52.3 °F 51.3 °F 29.8 in Calm     96% 0 in 0 W/m2
02:43 52.2 °F 51.1 °F 29.8 in Calm     96% 0 in 0 W/m2
02:48 52.2 °F 51.1 °F 29.7 in Calm     96% 0 in 0 W/m2
02:53 52 °F 50.9 °F 29.7 in Calm     96% 0 in 0 W/m2
02:58 52 °F 50.9 °F 29.7 in Calm     96% 0 in 0 W/m2
03:03 52 °F 50.9 °F 29.7 in Calm     96% 0 in 0 W/m2
03:08 52 °F 51.1 °F 29.7 in Calm     97% 0 in 0 W/m2
03:13 52 °F 51.1 °F 29.7 in Calm     97% 0 in 0 W/m2
03:18 52 °F 51.1 °F 29.7 in Calm     97% 0 in 0 W/m2
03:23 52 °F 51.1 °F 29.7 in Calm     97% 0 in 0 W/m2
03:28 51.8 °F 50.7 °F 29.7 in Calm     96% 0 in 0 W/m2
03:33 51.6 °F 50.5 °F 29.7 in Calm     96% 0 in 0 W/m2
03:38 51.4 °F 50.4 °F 29.7 in Calm     96% 0 in 0 W/m2
03:43 51.3 °F 50.2 °F 29.7 in Calm     96% 0 in 0 W/m2
03:48 51.3 °F 50.2 °F 29.7 in Calm     96% 0 in 0 W/m2
03:53 51.1 °F 50 °F 29.7 in Calm     96% 0 in 0 W/m2
03:58 51.1 °F 50 °F 29.7 in Calm     96% 0 in 0 W/m2
04:03 50.9 °F 49.8 °F 29.7 in Calm     96% 0 in 0 W/m2
04:08 50.9 °F 49.8 °F 29.7 in Calm     96% 0 in 0 W/m2
04:13 50.9 °F 49.8 °F 29.7 in Calm     96% 0 in 0 W/m2
04:18 50.9 °F 49.8 °F 29.7 in Calm     96% 0 in 0 W/m2
04:23 51.1 °F 50.2 °F 29.7 in Calm     97% 0 in 0 W/m2
04:28 51.1 °F 50.2 °F 29.7 in Calm     97% 0 in 0 W/m2
04:33 51.3 °F 50.4 °F 29.7 in Calm     97% 0 in 0 W/m2
04:38 51.3 °F 50.4 °F 29.7 in Calm     97% 0 in 0 W/m2
04:43 51.3 °F 50.4 °F 29.7 in Calm     97% 0 in 0 W/m2
04:48 51.3 °F 50.4 °F 29.7 in Calm     97% 0 in 0 W/m2
04:53 51.3 °F 50.4 °F 29.7 in Calm     97% 0 in 0 W/m2
04:58 51.3 °F 50.4 °F 29.7 in Calm     97% 0 in 0 W/m2
05:03 51.3 °F 50.4 °F 29.7 in Calm     97% 0 in 0 W/m2
05:08 51.3 °F 50.4 °F 29.7 in Calm     97% 0 in 0 W/m2
05:13 51.3 °F 50.4 °F 29.7 in Calm     97% 0 in 0 W/m2
05:18 51.3 °F 50.4 °F 29.7 in Calm     97% 0 in 0 W/m2
05:23 51.3 °F 50.4 °F 29.7 in Calm     97% 0 in 0 W/m2
05:28 51.3 °F 50.4 °F 29.7 in Calm     97% 0 in 0 W/m2
05:33 51.3 °F 50.4 °F 29.7 in Calm     97% 0 in 0 W/m2
05:38 51.3 °F 50.4 °F 29.7 in Calm     97% 0 in 0 W/m2
05:43 51.3 °F 50.4 °F 29.7 in Calm     97% 0 in 0 W/m2
05:48 51.3 °F 50.4 °F 29.7 in Calm     97% 0 in 0 W/m2
05:53 51.3 °F 50.4 °F 29.7 in Calm     97% 0 in 0 W/m2
05:58 51.1 °F 50.2 °F 29.7 in Calm     97% 0 in 0 W/m2
06:03 51.1 °F 50.2 °F 29.7 in Calm     97% 0 in 0 W/m2
06:08 51.1 °F 50.2 °F 29.7 in Calm     97% 0 in 0 W/m2
06:13 51.1 °F 50.2 °F 29.7 in Calm     97% 0 in 0 W/m2
06:18 51.1 °F 50.2 °F 29.7 in Calm     97% 0 in 0 W/m2
06:23 50.9 °F 50 °F 29.7 in Calm     97% 0 in 0 W/m2
06:28 50.9 °F 50 °F 29.7 in Calm     97% 0 in 0 W/m2
06:33 50.7 °F 49.8 °F 29.7 in Calm     97% 0 in 0 W/m2
06:38 50.7 °F 49.8 °F 29.7 in Calm     97% 0 in 0 W/m2
06:43 50.7 °F 49.8 °F 29.7 in Calm     97% 0 in 0 W/m2
06:48 50.7 °F 49.8 °F 29.7 in Calm     97% 0 in 0 W/m2
06:53 50.7 °F 49.8 °F 29.7 in Calm     97% 0 in 0 W/m2
06:58 50.5 °F 49.6 °F 29.7 in Calm     97% 0 in 0 W/m2
07:03 50.5 °F 49.6 °F 29.6 in Calm     97% 0 in 0 W/m2
07:08 50.5 °F 49.6 °F 29.6 in Calm     97% 0 in 0 W/m2
07:13 50.5 °F 49.6 °F 29.6 in Calm     97% 0 in 0 W/m2
07:18 50.5 °F 49.6 °F 29.6 in Calm     97% 0 in 0 W/m2
07:23 50.5 °F 49.6 °F 29.6 in Calm     97% 0 in 0 W/m2
07:28 50.5 °F 49.6 °F 29.6 in Calm     97% 0 in 0 W/m2
07:33 50.5 °F 49.6 °F 29.6 in Calm     97% 0 in 7 W/m2
07:38 50.7 °F 49.8 °F 29.6 in Calm     97% 0 in 0 W/m2
07:43 50.7 °F 49.8 °F 29.6 in Calm     97% 0 in 0 W/m2
07:48 50.7 °F 49.8 °F 29.6 in Calm     97% 0 in 0 W/m2
07:53 50.7 °F 49.8 °F 29.6 in Calm     97% 0 in 5 W/m2
07:58 50.7 °F 49.8 °F 29.6 in Calm     97% 0 in 7 W/m2
08:03 50.7 °F 49.8 °F 29.6 in Calm     97% 0 in 9 W/m2
08:08 51.1 °F 50.2 °F 29.6 in Calm     97% 0 in 12 W/m2
08:13 51.1 °F 50.2 °F 29.6 in Calm     97% 0 in 21 W/m2
08:18 51.3 °F 50.4 °F 29.6 in Calm     97% 0 in 23 W/m2
08:23 51.3 °F 50.4 °F 29.6 in Calm     97% 0 in 25 W/m2
08:28 51.4 °F 50.5 °F 29.6 in Calm     97% 0 in 30 W/m2
08:33 51.4 °F 50.5 °F 29.6 in Calm   2 mph 97% 0 in 28 W/m2
08:38 51.6 °F 50.7 °F 29.6 in ESE 2 mph 3 mph 97% 0 in 28 W/m2
08:43 51.8 °F 50.9 °F 29.6 in Calm   2 mph 97% 0 in 33 W/m2
08:48 51.8 °F 50.9 °F 29.6 in East 0.9 mph 3 mph 97% 0 in 35 W/m2
08:53 52 °F 51.1 °F 29.6 in Calm     97% 0 in 42 W/m2
08:58 52 °F 51.1 °F 29.6 in Calm     97% 0 in 49 W/m2
09:03 52 °F 51.1 °F 29.6 in Calm     97% 0 in 44 W/m2
09:08 52.2 °F 51.3 °F 29.6 in Calm   1 mph 97% 0 in 42 W/m2
09:13 52.2 °F 51.3 °F 29.6 in Calm   2 mph 97% 0 in 37 W/m2
09:18 52.3 °F 51.4 °F 29.6 in Calm   2 mph 97% 0 in 39 W/m2
09:23 52.3 °F 51.4 °F 29.6 in Calm     97% 0 in 37 W/m2
09:28 52.3 °F 51.4 °F 29.6 in Calm   1 mph 97% 0 in 49 W/m2
09:33 52.3 °F 51.4 °F 29.6 in NE 0.9 mph 1 mph 97% 0 in 49 W/m2
09:38 52.5 °F 51.6 °F 29.6 in NE 0.9 mph 1 mph 97% 0 in 49 W/m2
09:44 52.5 °F 51.6 °F 29.6 in NE 2 mph 2 mph 97% 0 in 65 W/m2
09:49 52.7 °F 51.8 °F 29.6 in Calm   1 mph 97% 0 in 83 W/m2
09:54 52.9 °F 52 °F 29.6 in ENE 0.9 mph 3 mph 97% 0 in 77 W/m2
09:59 53.1 °F 52.2 °F 29.6 in Calm     97% 0 in 84 W/m2
10:04 53.2 °F 52.3 °F 29.6 in ENE 2 mph 3 mph 97% 0 in 123 W/m2
10:09 53.4 °F 52.5 °F 29.6 in Calm   1 mph 97% 0 in 127 W/m2
10:14 53.8 °F 52.9 °F 29.6 in NE 2 mph 3 mph 97% 0 in 141 W/m2
10:19 54 °F 53.1 °F 29.6 in NE 0.9 mph 1 mph 97% 0 in 137 W/m2
10:24 54.3 °F 53.4 °F 29.6 in East 2.9 mph 5 mph 97% 0 in 121 W/m2
10:29 54.7 °F 53.6 °F 29.6 in NE 2 mph 3 mph 96% 0 in 132 W/m2
10:34 54.9 °F 53.8 °F 29.6 in ESE 2 mph 3 mph 96% 0 in 123 W/m2
10:39 55 °F 53.6 °F 29.6 in NE 2 mph 4 mph 95% 0 in 137 W/m2
10:44 55.6 °F 54 °F 29.6 in East 0.9 mph 3 mph 94% 0 in 155 W/m2
10:49 55.8 °F 53.8 °F 29.6 in East 2.9 mph 5 mph 93% 0 in 183 W/m2
10:54 56.1 °F 53.8 °F 29.6 in ENE 2 mph 6 mph 92% 0 in 123 W/m2
10:59 56.5 °F 54.1 °F 29.6 in ENE 4.9 mph 6 mph 92% 0 in 109 W/m2
11:04 56.5 °F 54 °F 29.6 in SE 0.9 mph 4 mph 91% 0 in 76 W/m2
11:09 56.5 °F 54 °F 29.6 in ENE 2 mph 6 mph 91% 0 in 51 W/m2
11:14 56.5 °F 54 °F 29.6 in ENE 0.9 mph 3 mph 91% 0 in 81 W/m2
11:19 56.5 °F 53.6 °F 29.6 in ENE 2.9 mph 6 mph 90% 0 in 47 W/m2
11:24 56.5 °F 53.6 °F 29.6 in ENE 2 mph 4 mph 90% 0 in 53 W/m2
11:29 56.5 °F 53.6 °F 29.6 in ENE 4 mph 5 mph 90% 0 in 60 W/m2
11:34 56.7 °F 53.8 °F 29.6 in ENE 0.9 mph 4 mph 90% 0 in 53 W/m2
11:39 56.7 °F 53.8 °F 29.6 in East 2 mph 4 mph 90% 0 in 63 W/m2
11:44 56.8 °F 54 °F 29.6 in NE 2 mph 3 mph 90% 0 in 77 W/m2
11:49 56.8 °F 54 °F 29.6 in Calm   3 mph 90% 0 in 63 W/m2
11:54 56.8 °F 54.3 °F 29.6 in Calm   1 mph 91% 0.01 in 49 W/m2
11:59 56.8 °F 54.3 °F 29.6 in Calm   3 mph 91% 0.02 in 47 W/m2
12:04 56.8 °F 54.5 °F 29.6 in Calm     92% 0.03 in 47 W/m2
12:09 56.8 °F 54.5 °F 29.6 in Calm   1 mph 92% 0.04 in 53 W/m2
12:14 56.7 °F 54.3 °F 29.6 in NNE 0.9 mph 2 mph 92% 0.05 in 49 W/m2
12:19 56.7 °F 54.7 °F 29.6 in East 0.9 mph 1 mph 93% 0.06 in 46 W/m2
12:24 56.7 °F 54.7 °F 29.6 in ENE 2.9 mph 4 mph 93% 0.07 in 46 W/m2
12:29 56.5 °F 54.5 °F 29.6 in NE 2.9 mph 3 mph 93% 0.08 in 40 W/m2
12:34 56.5 °F 54.5 °F 29.6 in ESE 0.9 mph 4 mph 93% 0.09 in 49 W/m2
12:39 56.3 °F 54.3 °F 29.6 in ENE 2.9 mph 3 mph 93% 0.11 in 56 W/m2
12:44 56.3 °F 54.7 °F 29.6 in ENE 4 mph 4 mph 94% 0.12 in 67 W/m2
12:49 56.1 °F 54.5 °F 29.6 in East 4 mph 6 mph 94% 0.11 in 54 W/m2
12:54 55.9 °F 54.3 °F 29.6 in NE 0.9 mph 5 mph 94% 0.12 in 44 W/m2
12:59 56.1 °F 54.5 °F 29.6 in East 2 mph 2 mph 94% 0.11 in 49 W/m2
13:04 56.1 °F 54.5 °F 29.6 in East 0.9 mph 3 mph 94% 0.1 in 63 W/m2
13:09 56.1 °F 54.5 °F 29.6 in Calm   2 mph 94% 0.09 in 76 W/m2
13:14 56.1 °F 54.7 °F 29.6 in East 2 mph 4 mph 95% 0.09 in 116 W/m2
13:19 56.5 °F 55 °F 29.6 in NE 2 mph 3 mph 95% 0.08 in 125 W/m2
13:25 56.5 °F 55 °F 29.6 in NNE 2 mph 8 mph 95% 0.07 in 105 W/m2
13:30 56.7 °F 55.2 °F 29.6 in ENE 2 mph 5 mph 95% 0.06 in 121 W/m2
13:35 56.7 °F 55.2 °F 29.6 in Calm   1 mph 95% 0.05 in 149 W/m2
13:40 56.8 °F 55.4 °F 29.6 in WNW 0.9 mph 4 mph 95% 0.03 in 128 W/m2
13:45 56.8 °F 55.4 °F 29.6 in North 2 mph 2 mph 95% 0.02 in 121 W/m2
13:50 57 °F 55.2 °F 29.6 in North 0.9 mph 4 mph 94% 0.02 in 97 W/m2
13:55 57 °F 55.2 °F 29.6 in Calm   4 mph 94% 0.02 in 113 W/m2
14:00 57.2 °F 55.4 °F 29.6 in NNE 0.9 mph 3 mph 94% 0.02 in 58 W/m2
14:05 57.4 °F 55.6 °F 29.6 in NE 2 mph 5 mph 94% 0.01 in 102 W/m2
14:10 57.4 °F 55.4 °F 29.6 in NW 2.9 mph 6 mph 93% 0.01 in 146 W/m2
14:15 57.6 °F 55.6 °F 29.6 in Calm   4 mph 93% 0.01 in 116 W/m2
14:20 57.7 °F 55.8 °F 29.6 in ENE 2 mph 5 mph 93% 0 in 132 W/m2
14:25 57.7 °F 55.8 °F 29.6 in NNW 2.9 mph 4 mph 93% 0 in 113 W/m2
14:30 57.7 °F 55.4 °F 29.6 in NE 2 mph 8 mph 92% 0 in 132 W/m2
14:35 57.9 °F 55.6 °F 29.6 in NE 6 mph 6 mph 92% 0 in 134 W/m2
14:40 57.9 °F 55.6 °F 29.6 in NE 0.9 mph 4 mph 92% 0 in 118 W/m2
14:45 57.9 °F 55.6 °F 29.6 in NW 2 mph 2 mph 92% 0 in 83 W/m2
14:50 57.9 °F 55.6 °F 29.6 in Calm   2 mph 92% 0 in 49 W/m2
14:55 57.9 °F 55.6 °F 29.6 in East 0.9 mph 2 mph 92% 0 in 74 W/m2
15:00 57.9 °F 55.2 °F 29.6 in NE 0.9 mph 2 mph 91% 0 in 58 W/m2
15:05 57.7 °F 55.4 °F 29.6 in Calm   3 mph 92% 0 in 58 W/m2
15:10 57.7 °F 55.4 °F 29.6 in NE 2.9 mph 4 mph 92% 0.01 in 49 W/m2
15:15 57.6 °F 55.2 °F 29.6 in WNW 2.9 mph 3 mph 92% 0.04 in 42 W/m2
15:20 57.4 °F 55 °F 29.6 in North 0.9 mph 5 mph 92% 0.07 in 123 W/m2
15:25 57.4 °F 55.4 °F 29.6 in WNW 2.9 mph 5 mph 93% 0.07 in 158 W/m2
15:30 57.4 °F 55.4 °F 29.6 in ESE 4 mph 4 mph 93% 0.08 in 200 W/m2
15:35 57.7 °F 55.8 °F 29.6 in NW 4 mph 6 mph 93% 0.08 in 431 W/m2
15:40 57.7 °F 55.4 °F 29.6 in West 6 mph 10 mph 92% 0.08 in 244 W/m2
15:45 58.1 °F 55.4 °F 29.6 in SW 2 mph 9 mph 91% 0.08 in 564 W/m2
15:50 58.3 °F 55.6 °F 29.6 in NW 0.9 mph 3 mph 91% 0.08 in 276 W/m2
15:55 58.8 °F 56.1 °F 29.6 in NW 2 mph 7 mph 91% 0.08 in 487 W/m2
16:00 58.8 °F 55.9 °F 29.6 in West 2 mph 10 mph 90% 0.08 in 100 W/m2
16:05 58.8 °F 55.9 °F 29.6 in ENE 2 mph 4 mph 90% 0.08 in 174 W/m2
16:10 59.2 °F 56.3 °F 29.6 in NNW 4 mph 7 mph 90% 0.07 in 489 W/m2
16:15 59.2 °F 56.3 °F 29.6 in NW 2.9 mph 4 mph 90% 0.04 in 116 W/m2
16:20 59 °F 55.8 °F 29.6 in North 2 mph 3 mph 89% 0.01 in 128 W/m2
16:25 59.2 °F 55.9 °F 29.6 in Calm   5 mph 89% 0.01 in 197 W/m2
16:30 59.5 °F 56.3 °F 29.6 in ENE 0.9 mph 5 mph 89% 0 in 448 W/m2
16:35 59.7 °F 55.8 °F 29.6 in NW 0.9 mph 6 mph 87% 0 in 118 W/m2
16:40 59.7 °F 55.6 °F 29.6 in ENE 2 mph 7 mph 86% 0 in 156 W/m2
16:45 59.5 °F 55.4 °F 29.6 in NE 2 mph 7 mph 86% 0 in 362 W/m2
16:50 59.7 °F 55.6 °F 29.6 in WNW 2 mph 3 mph 86% 0 in 139 W/m2
16:55 59.9 °F 55.8 °F 29.6 in Calm   5 mph 86% 0 in 357 W/m2
17:00 60.1 °F 56.1 °F 29.6 in Calm   3 mph 87% 0 in 348 W/m2
17:05 60.3 °F 56.1 °F 29.6 in SSW 0.9 mph 2 mph 86% 0 in 329 W/m2
17:10 60.1 °F 55.2 °F 29.6 in NNE 2 mph 5 mph 84% 0 in 83 W/m2
17:15 59.9 °F 55.4 °F 29.6 in Calm   1 mph 85% 0 in 160 W/m2
17:20 59.5 °F 55 °F 29.6 in SSW 2 mph 5 mph 85% 0 in 153 W/m2
17:25 59.5 °F 55 °F 29.6 in Calm     85% 0 in 188 W/m2
17:30 59.5 °F 54.7 °F 29.6 in East 0.9 mph 5 mph 84% 0 in 69 W/m2
17:35 59.5 °F 54.3 °F 29.6 in ESE 0.9 mph 5 mph 83% 0 in 144 W/m2
17:40 59.5 °F 54.3 °F 29.6 in North 2 mph 4 mph 83% 0 in 243 W/m2
17:45 59.5 °F 54.3 °F 29.6 in West 2 mph 5 mph 83% 0 in 211 W/m2
17:50 59.5 °F 54 °F 29.6 in Calm   1 mph 82% 0 in 63 W/m2
17:55 59.5 °F 54.3 °F 29.6 in NNE 0.9 mph 2 mph 83% 0 in 86 W/m2
18:00 59.2 °F 54.7 °F 29.6 in WNW 0.9 mph 2 mph 85% 0 in 58 W/m2
18:05 58.6 °F 54.1 °F 29.6 in SE 2 mph 2 mph 85% 0 in 39 W/m2
18:10 58.3 °F 54.1 °F 29.6 in Calm   1 mph 86% 0 in 32 W/m2
18:15 57.7 °F 54 °F 29.6 in Calm   2 mph 87% 0 in 62 W/m2
18:20 57.6 °F 54.3 °F 29.6 in Calm   1 mph 89% 0 in 46 W/m2
18:25 57.4 °F 54.1 °F 29.6 in Calm   2 mph 89% 0 in 42 W/m2
18:30 57 °F 54.1 °F 29.6 in Calm   1 mph 90% 0 in 40 W/m2
18:35 57 °F 54.5 °F 29.6 in Calm   2 mph 91% 0 in 28 W/m2
18:40 56.8 °F 54.3 °F 29.6 in Calm     91% 0 in 37 W/m2
18:45 56.7 °F 54.1 °F 29.6 in West 0.9 mph 2 mph 91% 0 in 26 W/m2
18:50 56.7 °F 54.1 °F 29.6 in Calm   1 mph 91% 0 in 18 W/m2
18:55 56.5 °F 54 °F 29.6 in WNW 0.9 mph 2 mph 91% 0 in 14 W/m2
19:00 56.3 °F 53.8 °F 29.6 in Calm   3 mph 91% 0 in 12 W/m2
19:05 55.9 °F 53.6 °F 29.6 in Calm   1 mph 92% 0 in 7 W/m2
19:10 55.8 °F 53.2 °F 29.6 in Calm   3 mph 91% 0 in 5 W/m2
19:15 55.4 °F 52.9 °F 29.6 in Calm     91% 0 in 0 W/m2
19:25 54.9 °F 52.3 °F 29.6 in Calm     91% 0 in 0 W/m2
19:30 54.7 °F 52.2 °F 29.6 in Calm     91% 0 in 0 W/m2
19:35 54.3 °F 52 °F 29.6 in NE 0.9 mph 2 mph 92% 0 in 0 W/m2
19:40 54 °F 51.6 °F 29.6 in North 0.9 mph 6 mph 92% 0 in 0 W/m2
19:45 54.3 °F 51.8 °F 29.6 in WSW 2 mph 6 mph 91% 0 in 0 W/m2
19:50 54.5 °F 51.3 °F 29.6 in WNW 2.9 mph 7 mph 89% 0 in 0 W/m2
19:55 54.9 °F 51.4 °F 29.6 in East 2 mph 2 mph 88% 0 in 0 W/m2
20:00 55 °F 51.3 °F 29.6 in WSW 0.9 mph 6 mph 87% 0 in 0 W/m2
20:05 54.9 °F 51.1 °F 29.6 in Calm   3 mph 87% 0 in 0 W/m2
20:10 54.7 °F 51.3 °F 29.6 in South 2 mph 2 mph 88% 0 in 0 W/m2
20:15 54.3 °F 50.5 °F 29.6 in Calm   2 mph 87% 0 in 0 W/m2
20:20 54.3 °F 50.9 °F 29.6 in Calm   1 mph 88% 0 in 0 W/m2
20:25 54.1 °F 50.9 °F 29.6 in Calm     89% 0 in 0 W/m2
20:30 53.6 °F 50.4 °F 29.6 in Calm   2 mph 89% 0 in 0 W/m2
20:35 53.2 °F 50.4 °F 29.6 in Calm     90% 0 in 0 W/m2
20:40 53.1 °F 50.2 °F 29.6 in Calm   1 mph 90% 0 in 0 W/m2
20:45 52.5 °F 49.6 °F 29.6 in Calm   1 mph 90% 0 in 0 W/m2
20:50 52.3 °F 49.8 °F 29.6 in SSE 0.9 mph 1 mph 91% 0 in 0 W/m2
20:55 52.2 °F 49.6 °F 29.6 in SE 0.9 mph 1 mph 91% 0 in 0 W/m2
21:01 52.2 °F 49.8 °F 29.6 in ENE 0.9 mph 2 mph 92% 0 in 0 W/m2
21:11 52 °F 49.6 °F 29.6 in Calm     92% 0 in 0 W/m2
21:16 51.6 °F 49.5 °F 29.6 in Calm   3 mph 92% 0 in 0 W/m2
21:21 51.4 °F 49.3 °F 29.6 in Calm     92% 0 in 0 W/m2
21:26 51.3 °F 49.3 °F 29.6 in Calm     93% 0 in 0 W/m2
21:31 51.3 °F 49.3 °F 29.6 in West 0.9 mph 1 mph 93% 0 in 0 W/m2
21:36 51.1 °F 49.1 °F 29.6 in Calm     93% 0 in 0 W/m2
21:41 50.9 °F 49.3 °F 29.6 in West 0.9 mph 2 mph 94% 0 in 0 W/m2
21:46 50.7 °F 49.1 °F 29.6 in Calm     94% 0 in 0 W/m2
21:51 50.5 °F 48.9 °F 29.6 in Calm   2 mph 94% 0 in 0 W/m2
21:56 50.5 °F 48.9 °F 29.6 in Calm   4 mph 94% 0 in 0 W/m2
22:01 50.5 °F 48.9 °F 29.6 in ESE 2 mph 2 mph 94% 0 in 0 W/m2
22:06 50.4 °F 48.7 °F 29.6 in Calm   4 mph 94% 0 in 0 W/m2
22:11 50.4 °F 48.7 °F 29.6 in ESE 2 mph 3 mph 94% 0 in 0 W/m2
22:16 50.2 °F 48.6 °F 29.6 in ESE 0.9 mph 2 mph 94% 0 in 0 W/m2
22:21 50.2 °F 48.7 °F 29.6 in Calm   1 mph 95% 0 in 0 W/m2
22:26 50 °F 48.6 °F 29.6 in Calm   2 mph 95% 0 in 0 W/m2
22:31 49.8 °F 48.4 °F 29.6 in ESE 2 mph 2 mph 95% 0 in 0 W/m2
22:36 49.8 °F 48.4 °F 29.6 in ESE 0.9 mph 3 mph 95% 0 in 0 W/m2
22:41 49.8 °F 48.4 °F 29.6 in Calm   1 mph 95% 0 in 0 W/m2
22:46 49.6 °F 48.2 °F 29.6 in Calm   1 mph 95% 0 in 0 W/m2
22:51 49.6 °F 48.2 °F 29.6 in Calm     95% 0 in 0 W/m2
22:56 49.3 °F 47.8 °F 29.6 in Calm     95% 0 in 0 W/m2
23:01 49.1 °F 47.5 °F 29.6 in Calm     94% 0 in 0 W/m2
23:06 48.7 °F 47.3 °F 29.6 in Calm     95% 0 in 0 W/m2
23:11 48.6 °F 47.1 °F 29.6 in Calm   1 mph 95% 0 in 0 W/m2
23:16 48.6 °F 47.1 °F 29.6 in Calm     95% 0 in 0 W/m2
23:21 48.4 °F 46.9 °F 29.6 in Calm   1 mph 95% 0 in 0 W/m2
23:26 48.2 °F 46.8 °F 29.6 in Calm     95% 0 in 0 W/m2
23:31 48 °F 46.6 °F 29.6 in Calm     95% 0 in 0 W/m2
23:36 48 °F 46.6 °F 29.6 in Calm     95% 0 in 0 W/m2
23:42 48 °F 46.6 °F 29.6 in Calm     95% 0 in 0 W/m2
23:47 47.8 °F 46.4 °F 29.6 in Calm     95% 0 in 0 W/m2
23:52 47.8 °F 46.4 °F 29.6 in Calm     95% 0 in 0 W/m2
23:57 47.8 °F 46.8 °F 29.5 in Calm     96% 0 in 0 W/m2
Juneau County Weather
Compliments of Weather Underground - 2 mb